sensor_id;sensor_type;location;lat;lon;timestamp;P1;durP1;ratioP1;P2;durP2;ratioP2
66886;SDS011;67239;51.680;5.976;2023-04-01T00:00:48;2.92;;;0.93;;
66886;SDS011;67239;51.680;5.976;2023-04-01T00:03:15;3.47;;;1.65;;
66886;SDS011;67239;51.680;5.976;2023-04-01T00:05:43;4.20;;;1.25;;
66886;SDS011;67239;51.680;5.976;2023-04-01T00:08:11;3.45;;;1.10;;
66886;SDS011;67239;51.680;5.976;2023-04-01T00:10:38;4.70;;;1.10;;
66886;SDS011;67239;51.680;5.976;2023-04-01T00:13:06;2.83;;;1.00;;
66886;SDS011;67239;51.680;5.976;2023-04-01T00:15:33;5.70;;;1.38;;
66886;SDS011;67239;51.680;5.976;2023-04-01T00:18:01;3.35;;;1.20;;
66886;SDS011;67239;51.680;5.976;2023-04-01T00:20:29;4.95;;;1.17;;
66886;SDS011;67239;51.680;5.976;2023-04-01T00:22:56;6.63;;;1.42;;
66886;SDS011;67239;51.680;5.976;2023-04-01T00:25:23;5.95;;;1.50;;
66886;SDS011;67239;51.680;5.976;2023-04-01T00:27:51;7.25;;;1.80;;
66886;SDS011;67239;51.680;5.976;2023-04-01T00:30:18;4.05;;;1.30;;
66886;SDS011;67239;51.680;5.976;2023-04-01T00:32:45;1.98;;;1.00;;
66886;SDS011;67239;51.680;5.976;2023-04-01T00:35:12;4.43;;;1.20;;
66886;SDS011;67239;51.680;5.976;2023-04-01T00:37:40;4.60;;;1.35;;
66886;SDS011;67239;51.680;5.976;2023-04-01T00:40:07;3.47;;;0.93;;
66886;SDS011;67239;51.680;5.976;2023-04-01T00:42:51;3.55;;;1.13;;
66886;SDS011;67239;51.680;5.976;2023-04-01T00:47:59;4.00;;;1.10;;
66886;SDS011;67239;51.680;5.976;2023-04-01T00:50:34;4.00;;;1.10;;
66886;SDS011;67239;51.680;5.976;2023-04-01T00:53:03;3.08;;;1.00;;
66886;SDS011;67239;51.680;5.976;2023-04-01T00:55:35;4.80;;;1.15;;
66886;SDS011;67239;51.680;5.976;2023-04-01T00:58:13;4.47;;;1.10;;
66886;SDS011;67239;51.680;5.976;2023-04-01T01:00:45;3.47;;;1.10;;
66886;SDS011;67239;51.680;5.976;2023-04-01T01:03:15;3.85;;;1.08;;
66886;SDS011;67239;51.680;5.976;2023-04-01T01:08:57;2.90;;;0.90;;
66886;SDS011;67239;51.680;5.976;2023-04-01T01:11:42;3.97;;;1.30;;
66886;SDS011;67239;51.680;5.976;2023-04-01T01:17:37;4.40;;;1.27;;
66886;SDS011;67239;51.680;5.976;2023-04-01T01:20:42;3.80;;;1.05;;
66886;SDS011;67239;51.680;5.976;2023-04-01T01:27:10;3.55;;;1.35;;
66886;SDS011;67239;51.680;5.976;2023-04-01T01:29:50;5.75;;;1.40;;
66886;SDS011;67239;51.680;5.976;2023-04-01T01:35:57;2.20;;;1.35;;
66886;SDS011;67239;51.680;5.976;2023-04-01T01:38:31;2.17;;;1.35;;
66886;SDS011;67239;51.680;5.976;2023-04-01T01:41:04;3.80;;;1.65;;
66886;SDS011;67239;51.680;5.976;2023-04-01T01:43:41;2.35;;;1.20;;
66886;SDS011;67239;51.680;5.976;2023-04-01T01:46:16;3.67;;;1.58;;
66886;SDS011;67239;51.680;5.976;2023-04-01T01:48:49;2.97;;;1.83;;
66886;SDS011;67239;51.680;5.976;2023-04-01T01:51:19;2.58;;;1.63;;
66886;SDS011;67239;51.680;5.976;2023-04-01T01:53:49;3.50;;;1.80;;
66886;SDS011;67239;51.680;5.976;2023-04-01T01:56:19;3.00;;;1.70;;
66886;SDS011;67239;51.680;5.976;2023-04-01T01:58:55;5.25;;;1.90;;
66886;SDS011;67239;51.680;5.976;2023-04-01T02:01:31;2.45;;;1.95;;
66886;SDS011;67239;51.680;5.976;2023-04-01T02:04:09;3.28;;;2.30;;
66886;SDS011;67239;51.680;5.976;2023-04-01T02:06:44;2.80;;;2.20;;
66886;SDS011;67239;51.680;5.976;2023-04-01T02:09:20;2.80;;;2.17;;
66886;SDS011;67239;51.680;5.976;2023-04-01T02:14:23;2.28;;;2.08;;
66886;SDS011;67239;51.680;5.976;2023-04-01T02:16:56;5.75;;;2.50;;
66886;SDS011;67239;51.680;5.976;2023-04-01T02:19:32;2.38;;;2.17;;
66886;SDS011;67239;51.680;5.976;2023-04-01T02:22:08;2.67;;;2.25;;
66886;SDS011;67239;51.680;5.976;2023-04-01T02:24:43;2.97;;;2.50;;
66886;SDS011;67239;51.680;5.976;2023-04-01T02:27:12;3.08;;;2.60;;
66886;SDS011;67239;51.680;5.976;2023-04-01T02:29:39;5.00;;;2.53;;
66886;SDS011;67239;51.680;5.976;2023-04-01T02:32:07;3.47;;;2.70;;
66886;SDS011;67239;51.680;5.976;2023-04-01T02:34:36;3.90;;;2.75;;
66886;SDS011;67239;51.680;5.976;2023-04-01T02:37:04;4.30;;;2.80;;
66886;SDS011;67239;51.680;5.976;2023-04-01T02:39:31;4.47;;;3.17;;
66886;SDS011;67239;51.680;5.976;2023-04-01T02:41:58;4.22;;;3.22;;
66886;SDS011;67239;51.680;5.976;2023-04-01T02:44:28;4.15;;;3.47;;
66886;SDS011;67239;51.680;5.976;2023-04-01T02:46:55;4.93;;;3.88;;
66886;SDS011;67239;51.680;5.976;2023-04-01T02:49:22;4.82;;;4.05;;
66886;SDS011;67239;51.680;5.976;2023-04-01T02:51:49;4.72;;;4.22;;
66886;SDS011;67239;51.680;5.976;2023-04-01T02:54:18;5.00;;;4.28;;
66886;SDS011;67239;51.680;5.976;2023-04-01T02:56:46;4.50;;;4.00;;
66886;SDS011;67239;51.680;5.976;2023-04-01T02:59:13;5.57;;;3.95;;
66886;SDS011;67239;51.680;5.976;2023-04-01T03:01:40;4.60;;;3.88;;
66886;SDS011;67239;51.680;5.976;2023-04-01T03:04:07;4.13;;;3.72;;
66886;SDS011;67239;51.680;5.976;2023-04-01T03:06:34;4.38;;;3.97;;
66886;SDS011;67239;51.680;5.976;2023-04-01T03:09:02;5.20;;;4.05;;
66886;SDS011;67239;51.680;5.976;2023-04-01T03:11:29;4.72;;;3.60;;
66886;SDS011;67239;51.680;5.976;2023-04-01T03:13:57;5.95;;;3.92;;
66886;SDS011;67239;51.680;5.976;2023-04-01T03:16:24;5.63;;;4.53;;
66886;SDS011;67239;51.680;5.976;2023-04-01T03:18:51;5.30;;;4.78;;
66886;SDS011;67239;51.680;5.976;2023-04-01T03:21:20;5.85;;;5.18;;
66886;SDS011;67239;51.680;5.976;2023-04-01T03:23:50;6.30;;;5.28;;
66886;SDS011;67239;51.680;5.976;2023-04-01T03:26:17;6.88;;;5.63;;
66886;SDS011;67239;51.680;5.976;2023-04-01T03:28:45;8.77;;;6.30;;
66886;SDS011;67239;51.680;5.976;2023-04-01T03:31:12;8.27;;;6.32;;
66886;SDS011;67239;51.680;5.976;2023-04-01T03:33:46;8.02;;;6.07;;
66886;SDS011;67239;51.680;5.976;2023-04-01T03:36:14;7.80;;;6.60;;
66886;SDS011;67239;51.680;5.976;2023-04-01T03:38:41;8.48;;;6.68;;
66886;SDS011;67239;51.680;5.976;2023-04-01T03:41:14;7.68;;;6.60;;
66886;SDS011;67239;51.680;5.976;2023-04-01T03:43:43;9.88;;;6.38;;
66886;SDS011;67239;51.680;5.976;2023-04-01T03:46:11;8.50;;;6.97;;
66886;SDS011;67239;51.680;5.976;2023-04-01T03:48:44;9.88;;;6.72;;
66886;SDS011;67239;51.680;5.976;2023-04-01T03:51:11;8.68;;;7.38;;
66886;SDS011;67239;51.680;5.976;2023-04-01T03:53:38;9.65;;;6.93;;
66886;SDS011;67239;51.680;5.976;2023-04-01T03:56:06;11.13;;;7.53;;
66886;SDS011;67239;51.680;5.976;2023-04-01T03:58:35;9.77;;;7.53;;
66886;SDS011;67239;51.680;5.976;2023-04-01T04:01:14;10.20;;;7.38;;
66886;SDS011;67239;51.680;5.976;2023-04-01T04:03:52;10.30;;;7.53;;
66886;SDS011;67239;51.680;5.976;2023-04-01T04:06:21;11.88;;;8.68;;
66886;SDS011;67239;51.680;5.976;2023-04-01T04:08:51;9.82;;;7.45;;
66886;SDS011;67239;51.680;5.976;2023-04-01T04:11:18;11.75;;;7.72;;
66886;SDS011;67239;51.680;5.976;2023-04-01T04:14:09;9.88;;;7.55;;
66886;SDS011;67239;51.680;5.976;2023-04-01T04:16:56;9.68;;;7.25;;
66886;SDS011;67239;51.680;5.976;2023-04-01T04:19:43;10.32;;;7.07;;
66886;SDS011;67239;51.680;5.976;2023-04-01T04:22:31;10.60;;;6.63;;
66886;SDS011;67239;51.680;5.976;2023-04-01T04:25:18;10.40;;;6.78;;
66886;SDS011;67239;51.680;5.976;2023-04-01T04:28:05;9.70;;;6.60;;
66886;SDS011;67239;51.680;5.976;2023-04-01T04:30:53;8.02;;;6.38;;
66886;SDS011;67239;51.680;5.976;2023-04-01T04:33:40;12.27;;;6.82;;
66886;SDS011;67239;51.680;5.976;2023-04-01T04:36:27;8.98;;;6.38;;
66886;SDS011;67239;51.680;5.976;2023-04-01T04:39:15;9.80;;;6.70;;
66886;SDS011;67239;51.680;5.976;2023-04-01T04:42:03;7.20;;;6.03;;
66886;SDS011;67239;51.680;5.976;2023-04-01T04:44:30;7.57;;;6.05;;
66886;SDS011;67239;51.680;5.976;2023-04-01T04:46:59;7.43;;;5.43;;
66886;SDS011;67239;51.680;5.976;2023-04-01T04:49:26;6.63;;;5.50;;
66886;SDS011;67239;51.680;5.976;2023-04-01T04:51:53;6.65;;;5.65;;
66886;SDS011;67239;51.680;5.976;2023-04-01T04:54:24;7.80;;;5.38;;
66886;SDS011;67239;51.680;5.976;2023-04-01T04:56:54;6.75;;;5.88;;
66886;SDS011;67239;51.680;5.976;2023-04-01T04:59:23;7.65;;;5.65;;
66886;SDS011;67239;51.680;5.976;2023-04-01T05:01:58;6.57;;;5.25;;
66886;SDS011;67239;51.680;5.976;2023-04-01T05:04:25;6.40;;;5.18;;
66886;SDS011;67239;51.680;5.976;2023-04-01T05:06:53;6.53;;;4.93;;
66886;SDS011;67239;51.680;5.976;2023-04-01T05:09:20;7.47;;;4.50;;
66886;SDS011;67239;51.680;5.976;2023-04-01T05:11:47;5.93;;;4.30;;
66886;SDS011;67239;51.680;5.976;2023-04-01T05:14:17;5.20;;;4.50;;
66886;SDS011;67239;51.680;5.976;2023-04-01T05:16:53;5.35;;;4.18;;
66886;SDS011;67239;51.680;5.976;2023-04-01T05:19:21;6.05;;;4.53;;
66886;SDS011;67239;51.680;5.976;2023-04-01T05:21:48;6.65;;;4.60;;
66886;SDS011;67239;51.680;5.976;2023-04-01T05:24:15;5.68;;;4.78;;
66886;SDS011;67239;51.680;5.976;2023-04-01T05:26:43;6.80;;;5.10;;
66886;SDS011;67239;51.680;5.976;2023-04-01T05:29:11;7.28;;;4.95;;
66886;SDS011;67239;51.680;5.976;2023-04-01T05:31:39;7.43;;;5.53;;
66886;SDS011;67239;51.680;5.976;2023-04-01T05:34:06;6.05;;;5.20;;
66886;SDS011;67239;51.680;5.976;2023-04-01T05:36:33;8.48;;;5.60;;
66886;SDS011;67239;51.680;5.976;2023-04-01T05:39:00;5.93;;;5.10;;
66886;SDS011;67239;51.680;5.976;2023-04-01T05:41:28;6.72;;;5.57;;
66886;SDS011;67239;51.680;5.976;2023-04-01T05:43:55;6.32;;;4.55;;
66886;SDS011;67239;51.680;5.976;2023-04-01T05:46:42;6.65;;;5.03;;
66886;SDS011;67239;51.680;5.976;2023-04-01T05:49:25;6.20;;;5.10;;
66886;SDS011;67239;51.680;5.976;2023-04-01T05:51:55;6.93;;;5.05;;
66886;SDS011;67239;51.680;5.976;2023-04-01T05:54:23;5.68;;;4.90;;
66886;SDS011;67239;51.680;5.976;2023-04-01T05:56:50;6.97;;;5.68;;
66886;SDS011;67239;51.680;5.976;2023-04-01T05:59:19;7.07;;;5.57;;
66886;SDS011;67239;51.680;5.976;2023-04-01T06:01:46;7.95;;;6.32;;
66886;SDS011;67239;51.680;5.976;2023-04-01T06:04:15;7.10;;;5.90;;
66886;SDS011;67239;51.680;5.976;2023-04-01T06:06:45;8.73;;;7.00;;
66886;SDS011;67239;51.680;5.976;2023-04-01T06:09:16;9.02;;;7.25;;
66886;SDS011;67239;51.680;5.976;2023-04-01T06:21:22;11.02;;;8.77;;
66886;SDS011;67239;51.680;5.976;2023-04-01T06:30:20;13.93;;;9.63;;
66886;SDS011;67239;51.680;5.976;2023-04-01T06:42:35;14.77;;;10.82;;
66886;SDS011;67239;51.680;5.976;2023-04-01T06:45:32;16.30;;;10.90;;
66886;SDS011;67239;51.680;5.976;2023-04-01T06:48:45;16.30;;;10.73;;
66886;SDS011;67239;51.680;5.976;2023-04-01T06:55:21;15.87;;;12.33;;
66886;SDS011;67239;51.680;5.976;2023-04-01T06:58:24;16.40;;;12.07;;
66886;SDS011;67239;51.680;5.976;2023-04-01T07:08:50;16.13;;;11.50;;
66886;SDS011;67239;51.680;5.976;2023-04-01T07:11:27;15.95;;;11.18;;
66886;SDS011;67239;51.680;5.976;2023-04-01T07:16:58;14.52;;;10.45;;
66886;SDS011;67239;51.680;5.976;2023-04-01T07:19:38;14.82;;;10.82;;
66886;SDS011;67239;51.680;5.976;2023-04-01T07:22:34;17.35;;;10.52;;
66886;SDS011;67239;51.680;5.976;2023-04-01T07:25:20;15.98;;;10.85;;
66886;SDS011;67239;51.680;5.976;2023-04-01T07:28:43;14.68;;;10.60;;
66886;SDS011;67239;51.680;5.976;2023-04-01T07:55:09;15.20;;;10.20;;
66886;SDS011;67239;51.680;5.976;2023-04-01T07:57:53;15.50;;;9.98;;
66886;SDS011;67239;51.680;5.976;2023-04-01T08:23:22;14.77;;;9.23;;
66886;SDS011;67239;51.680;5.976;2023-04-01T08:25:57;13.52;;;8.68;;
66886;SDS011;67239;51.680;5.976;2023-04-01T08:29:09;13.55;;;8.48;;
66886;SDS011;67239;51.680;5.976;2023-04-01T08:31:48;13.10;;;8.57;;
66886;SDS011;67239;51.680;5.976;2023-04-01T08:34:25;13.15;;;8.38;;
66886;SDS011;67239;51.680;5.976;2023-04-01T08:37:09;10.70;;;6.07;;
66886;SDS011;67239;51.680;5.976;2023-04-01T08:39:57;11.32;;;7.30;;
66886;SDS011;67239;51.680;5.976;2023-04-01T08:42:45;10.50;;;6.82;;
66886;SDS011;67239;51.680;5.976;2023-04-01T08:45:44;9.93;;;6.80;;
66886;SDS011;67239;51.680;5.976;2023-04-01T08:54:44;10.00;;;6.32;;
66886;SDS011;67239;51.680;5.976;2023-04-01T08:58:19;8.75;;;6.25;;
66886;SDS011;67239;51.680;5.976;2023-04-01T09:04:59;7.93;;;5.65;;
66886;SDS011;67239;51.680;5.976;2023-04-01T09:07:53;8.82;;;5.72;;
66886;SDS011;67239;51.680;5.976;2023-04-01T09:10:47;8.40;;;4.85;;
66886;SDS011;67239;51.680;5.976;2023-04-01T09:22:46;8.27;;;6.28;;
66886;SDS011;67239;51.680;5.976;2023-04-01T09:26:10;11.57;;;7.28;;
66886;SDS011;67239;51.680;5.976;2023-04-01T09:34:53;11.05;;;6.80;;
66886;SDS011;67239;51.680;5.976;2023-04-01T09:40:35;11.68;;;6.53;;
66886;SDS011;67239;51.680;5.976;2023-04-01T09:46:43;12.02;;;7.97;;
66886;SDS011;67239;51.680;5.976;2023-04-01T09:49:43;12.25;;;8.52;;
66886;SDS011;67239;51.680;5.976;2023-04-01T09:52:47;16.23;;;9.23;;
66886;SDS011;67239;51.680;5.976;2023-04-01T10:08:43;17.55;;;10.85;;
66886;SDS011;67239;51.680;5.976;2023-04-01T10:14:25;21.23;;;10.73;;
66886;SDS011;67239;51.680;5.976;2023-04-01T10:23:59;17.63;;;10.38;;
66886;SDS011;67239;51.680;5.976;2023-04-01T10:33:35;16.77;;;10.05;;
66886;SDS011;67239;51.680;5.976;2023-04-01T10:46:41;15.95;;;8.73;;
66886;SDS011;67239;51.680;5.976;2023-04-01T11:03:00;14.93;;;8.73;;
66886;SDS011;67239;51.680;5.976;2023-04-01T11:06:30;15.77;;;9.75;;
66886;SDS011;67239;51.680;5.976;2023-04-01T11:09:27;15.15;;;8.43;;
66886;SDS011;67239;51.680;5.976;2023-04-01T11:38:29;15.18;;;8.63;;
66886;SDS011;67239;51.680;5.976;2023-04-01T11:41:30;13.10;;;8.48;;
66886;SDS011;67239;51.680;5.976;2023-04-01T11:44:31;11.50;;;7.95;;
66886;SDS011;67239;51.680;5.976;2023-04-01T11:53:43;9.20;;;6.20;;
66886;SDS011;67239;51.680;5.976;2023-04-01T11:56:39;7.75;;;5.13;;
66886;SDS011;67239;51.680;5.976;2023-04-01T11:59:32;7.82;;;5.43;;
66886;SDS011;67239;51.680;5.976;2023-04-01T12:02:22;7.82;;;5.22;;
66886;SDS011;67239;51.680;5.976;2023-04-01T12:08:33;9.02;;;5.88;;
66886;SDS011;67239;51.680;5.976;2023-04-01T12:16:44;9.60;;;6.63;;
66886;SDS011;67239;51.680;5.976;2023-04-01T12:19:33;11.75;;;7.10;;
66886;SDS011;67239;51.680;5.976;2023-04-01T12:22:12;9.85;;;7.13;;
66886;SDS011;67239;51.680;5.976;2023-04-01T12:25:22;9.05;;;6.13;;
66886;SDS011;67239;51.680;5.976;2023-04-01T12:31:25;12.13;;;7.72;;
66886;SDS011;67239;51.680;5.976;2023-04-01T12:49:26;10.65;;;6.72;;
66886;SDS011;67239;51.680;5.976;2023-04-01T12:51:38;7.53;;;5.80;;
66886;SDS011;67239;51.680;5.976;2023-04-01T13:03:42;6.43;;;4.50;;
66886;SDS011;67239;51.680;5.976;2023-04-01T13:10:00;4.55;;;3.78;;
66886;SDS011;67239;51.680;5.976;2023-04-01T13:27:32;4.40;;;3.80;;
66886;SDS011;67239;51.680;5.976;2023-04-01T13:33:30;5.28;;;4.20;;
66886;SDS011;67239;51.680;5.976;2023-04-01T13:42:02;4.75;;;3.80;;
66886;SDS011;67239;51.680;5.976;2023-04-01T13:47:59;6.28;;;4.75;;
66886;SDS011;67239;51.680;5.976;2023-04-01T13:50:55;5.43;;;4.82;;
66886;SDS011;67239;51.680;5.976;2023-04-01T14:02:50;8.25;;;6.30;;
66886;SDS011;67239;51.680;5.976;2023-04-01T14:08:26;9.95;;;6.35;;
66886;SDS011;67239;51.680;5.976;2023-04-01T14:40:34;10.00;;;6.57;;
66886;SDS011;67239;51.680;5.976;2023-04-01T14:43:23;9.48;;;7.45;;
66886;SDS011;67239;51.680;5.976;2023-04-01T14:49:22;7.85;;;5.88;;
66886;SDS011;67239;51.680;5.976;2023-04-01T14:52:05;7.90;;;6.10;;
66886;SDS011;67239;51.680;5.976;2023-04-01T14:54:38;9.02;;;6.32;;
66886;SDS011;67239;51.680;5.976;2023-04-01T14:59:46;8.32;;;6.03;;
66886;SDS011;67239;51.680;5.976;2023-04-01T15:08:54;9.57;;;6.93;;
66886;SDS011;67239;51.680;5.976;2023-04-01T15:14:38;9.95;;;6.95;;
66886;SDS011;67239;51.680;5.976;2023-04-01T15:17:29;11.30;;;7.32;;
66886;SDS011;67239;51.680;5.976;2023-04-01T15:20:18;9.35;;;7.50;;
66886;SDS011;67239;51.680;5.976;2023-04-01T15:26:32;10.07;;;7.28;;
66886;SDS011;67239;51.680;5.976;2023-04-01T15:38:05;11.35;;;7.55;;
66886;SDS011;67239;51.680;5.976;2023-04-01T15:40:49;10.43;;;7.43;;
66886;SDS011;67239;51.680;5.976;2023-04-01T15:43:41;15.38;;;8.35;;
66886;SDS011;67239;51.680;5.976;2023-04-01T16:03:29;14.13;;;8.35;;
66886;SDS011;67239;51.680;5.976;2023-04-01T16:12:32;3.17;;;2.63;;
66886;SDS011;67239;51.680;5.976;2023-04-01T16:15:28;2.80;;;2.15;;
66886;SDS011;67239;51.680;5.976;2023-04-01T16:18:14;3.03;;;2.17;;
66886;SDS011;67239;51.680;5.976;2023-04-01T16:24:00;3.20;;;2.65;;
66886;SDS011;67239;51.680;5.976;2023-04-01T16:26:57;4.43;;;3.00;;
66886;SDS011;67239;51.680;5.976;2023-04-01T16:29:55;5.32;;;3.13;;
66886;SDS011;67239;51.680;5.976;2023-04-01T16:35:35;5.50;;;4.20;;
66886;SDS011;67239;51.680;5.976;2023-04-01T16:43:51;7.40;;;5.30;;
66886;SDS011;67239;51.680;5.976;2023-04-01T16:46:39;9.60;;;5.97;;
66886;SDS011;67239;51.680;5.976;2023-04-01T16:54:45;8.57;;;5.10;;
66886;SDS011;67239;51.680;5.976;2023-04-01T16:57:57;3.45;;;2.75;;
66886;SDS011;67239;51.680;5.976;2023-04-01T17:00:27;3.35;;;2.58;;
66886;SDS011;67239;51.680;5.976;2023-04-01T17:08:43;2.95;;;2.20;;
66886;SDS011;67239;51.680;5.976;2023-04-01T17:11:45;2.60;;;2.17;;
66886;SDS011;67239;51.680;5.976;2023-04-01T17:14:32;3.35;;;2.50;;
66886;SDS011;67239;51.680;5.976;2023-04-01T17:23:34;4.68;;;3.65;;
66886;SDS011;67239;51.680;5.976;2023-04-01T17:34:56;6.28;;;5.18;;
66886;SDS011;67239;51.680;5.976;2023-04-01T17:38:00;6.82;;;5.13;;
66886;SDS011;67239;51.680;5.976;2023-04-01T17:46:55;8.43;;;6.07;;
66886;SDS011;67239;51.680;5.976;2023-04-01T17:52:57;7.40;;;5.97;;
66886;SDS011;67239;51.680;5.976;2023-04-01T18:07:27;5.75;;;5.15;;
66886;SDS011;67239;51.680;5.976;2023-04-01T18:10:05;6.88;;;5.80;;
66886;SDS011;67239;51.680;5.976;2023-04-01T18:13:06;7.13;;;5.53;;
66886;SDS011;67239;51.680;5.976;2023-04-01T18:16:24;6.28;;;5.13;;
66886;SDS011;67239;51.680;5.976;2023-04-01T18:21:58;6.03;;;4.60;;
66886;SDS011;67239;51.680;5.976;2023-04-01T18:24:54;4.72;;;4.32;;
66886;SDS011;67239;51.680;5.976;2023-04-01T18:27:47;5.70;;;4.93;;
66886;SDS011;67239;51.680;5.976;2023-04-01T18:30:26;6.60;;;5.65;;
66886;SDS011;67239;51.680;5.976;2023-04-01T18:33:05;6.40;;;5.53;;
66886;SDS011;67239;51.680;5.976;2023-04-01T18:39:08;6.70;;;6.00;;
66886;SDS011;67239;51.680;5.976;2023-04-01T18:44:51;8.18;;;6.18;;
66886;SDS011;67239;51.680;5.976;2023-04-01T18:47:44;8.40;;;5.97;;
66886;SDS011;67239;51.680;5.976;2023-04-01T18:50:47;7.30;;;6.20;;
66886;SDS011;67239;51.680;5.976;2023-04-01T18:56:05;7.60;;;6.80;;
66886;SDS011;67239;51.680;5.976;2023-04-01T18:58:48;7.45;;;6.68;;
66886;SDS011;67239;51.680;5.976;2023-04-01T19:01:47;7.05;;;6.35;;
66886;SDS011;67239;51.680;5.976;2023-04-01T19:04:39;6.10;;;5.32;;
66886;SDS011;67239;51.680;5.976;2023-04-01T19:10:19;8.20;;;6.80;;
66886;SDS011;67239;51.680;5.976;2023-04-01T19:16:26;7.55;;;6.60;;
66886;SDS011;67239;51.680;5.976;2023-04-01T19:21:53;6.77;;;6.07;;
66886;SDS011;67239;51.680;5.976;2023-04-01T19:24:42;8.38;;;7.38;;
66886;SDS011;67239;51.680;5.976;2023-04-01T19:27:45;10.35;;;8.55;;
66886;SDS011;67239;51.680;5.976;2023-04-01T19:30:23;10.18;;;9.05;;
66886;SDS011;67239;51.680;5.976;2023-04-01T19:33:19;10.85;;;9.68;;
66886;SDS011;67239;51.680;5.976;2023-04-01T19:39:17;10.40;;;9.35;;
66886;SDS011;67239;51.680;5.976;2023-04-01T19:42:21;10.27;;;8.82;;
66886;SDS011;67239;51.680;5.976;2023-04-01T19:45:18;9.15;;;8.23;;
66886;SDS011;67239;51.680;5.976;2023-04-01T19:50:53;8.77;;;7.78;;
66886;SDS011;67239;51.680;5.976;2023-04-01T19:53:31;9.35;;;8.45;;
66886;SDS011;67239;51.680;5.976;2023-04-01T19:56:19;9.80;;;8.80;;
66886;SDS011;67239;51.680;5.976;2023-04-01T20:01:34;10.10;;;9.10;;
66886;SDS011;67239;51.680;5.976;2023-04-01T20:04:13;10.07;;;9.07;;
66886;SDS011;67239;51.680;5.976;2023-04-01T20:06:55;9.63;;;8.63;;
66886;SDS011;67239;51.680;5.976;2023-04-01T20:09:46;9.45;;;8.48;;
66886;SDS011;67239;51.680;5.976;2023-04-01T20:12:38;8.13;;;7.32;;
66886;SDS011;67239;51.680;5.976;2023-04-01T20:15:21;8.20;;;7.43;;
66886;SDS011;67239;51.680;5.976;2023-04-01T20:18:46;8.40;;;7.60;;
66886;SDS011;67239;51.680;5.976;2023-04-01T20:26:50;6.65;;;5.95;;
66886;SDS011;67239;51.680;5.976;2023-04-01T20:40:52;8.57;;;7.75;;
66886;SDS011;67239;51.680;5.976;2023-04-01T20:46:45;6.90;;;6.25;;
66886;SDS011;67239;51.680;5.976;2023-04-01T20:49:46;6.30;;;5.70;;
66886;SDS011;67239;51.680;5.976;2023-04-01T20:52:42;5.60;;;5.10;;
66886;SDS011;67239;51.680;5.976;2023-04-01T20:55:30;6.55;;;5.93;;
66886;SDS011;67239;51.680;5.976;2023-04-01T21:01:54;6.72;;;6.03;;
66886;SDS011;67239;51.680;5.976;2023-04-01T21:07:47;8.10;;;7.32;;
66886;SDS011;67239;51.680;5.976;2023-04-01T21:10:43;9.18;;;8.05;;
66886;SDS011;67239;51.680;5.976;2023-04-01T21:13:34;8.05;;;7.05;;
66886;SDS011;67239;51.680;5.976;2023-04-01T21:16:33;8.13;;;7.38;;
66886;SDS011;67239;51.680;5.976;2023-04-01T21:22:36;5.40;;;4.90;;
66886;SDS011;67239;51.680;5.976;2023-04-01T21:25:28;6.05;;;5.45;;
66886;SDS011;67239;51.680;5.976;2023-04-01T21:28:16;7.38;;;6.68;;
66886;SDS011;67239;51.680;5.976;2023-04-01T21:31:05;7.70;;;7.00;;
66886;SDS011;67239;51.680;5.976;2023-04-01T21:40:11;9.75;;;8.50;;
66886;SDS011;67239;51.680;5.976;2023-04-01T21:48:52;8.70;;;7.85;;
66886;SDS011;67239;51.680;5.976;2023-04-01T21:58:05;7.40;;;6.70;;
66886;SDS011;67239;51.680;5.976;2023-04-01T22:07:11;5.90;;;5.30;;
66886;SDS011;67239;51.680;5.976;2023-04-01T22:10:03;6.32;;;5.22;;
66886;SDS011;67239;51.680;5.976;2023-04-01T22:12:43;5.85;;;5.35;;
66886;SDS011;67239;51.680;5.976;2023-04-01T22:18:42;6.13;;;5.53;;
66886;SDS011;67239;51.680;5.976;2023-04-01T22:21:44;9.30;;;8.40;;
66886;SDS011;67239;51.680;5.976;2023-04-01T22:30:20;8.45;;;7.65;;
66886;SDS011;67239;51.680;5.976;2023-04-01T22:42:21;7.77;;;7.00;;
66886;SDS011;67239;51.680;5.976;2023-04-01T22:56:00;7.30;;;6.60;;
66886;SDS011;67239;51.680;5.976;2023-04-01T22:58:34;7.70;;;6.90;;
66886;SDS011;67239;51.680;5.976;2023-04-01T23:01:19;7.00;;;6.40;;
66886;SDS011;67239;51.680;5.976;2023-04-01T23:06:33;6.15;;;5.63;;
66886;SDS011;67239;51.680;5.976;2023-04-01T23:12:04;7.10;;;6.40;;
66886;SDS011;67239;51.680;5.976;2023-04-01T23:26:32;4.50;;;4.10;;
66886;SDS011;67239;51.680;5.976;2023-04-01T23:29:13;4.85;;;3.80;;
66886;SDS011;67239;51.680;5.976;2023-04-01T23:31:56;4.60;;;4.20;;
66886;SDS011;67239;51.680;5.976;2023-04-01T23:34:27;5.07;;;4.38;;
66886;SDS011;67239;51.680;5.976;2023-04-01T23:36:59;5.53;;;4.78;;
66886;SDS011;67239;51.680;5.976;2023-04-01T23:39:35;5.60;;;5.10;;
66886;SDS011;67239;51.680;5.976;2023-04-01T23:42:07;4.97;;;4.57;;
66886;SDS011;67239;51.680;5.976;2023-04-01T23:44:49;5.50;;;5.00;;
66886;SDS011;67239;51.680;5.976;2023-04-01T23:47:21;5.30;;;4.68;;
66886;SDS011;67239;51.680;5.976;2023-04-01T23:50:01;5.07;;;4.55;;
66886;SDS011;67239;51.680;5.976;2023-04-01T23:52:42;5.80;;;5.30;;
66886;SDS011;67239;51.680;5.976;2023-04-01T23:55:15;5.60;;;4.43;;
